sensor_id;sensor_type;location;lat;lon;timestamp;P1;durP1;ratioP1;P2;durP2;ratioP2
16288;SDS011;26089;43.538;5.250;2023-04-05T00:02:20;8.90;;;5.27;;
16288;SDS011;26089;43.538;5.250;2023-04-05T00:04:48;7.77;;;4.87;;
16288;SDS011;26089;43.538;5.250;2023-04-05T00:07:16;5.60;;;4.97;;
16288;SDS011;26089;43.538;5.250;2023-04-05T00:09:47;6.37;;;5.20;;
16288;SDS011;26089;43.538;5.250;2023-04-05T00:12:14;5.90;;;4.97;;
16288;SDS011;26089;43.538;5.250;2023-04-05T00:14:41;8.70;;;5.93;;
16288;SDS011;26089;43.538;5.250;2023-04-05T00:17:08;5.60;;;4.87;;
16288;SDS011;26089;43.538;5.250;2023-04-05T00:19:35;5.33;;;4.77;;
16288;SDS011;26089;43.538;5.250;2023-04-05T00:22:03;4.90;;;4.50;;
16288;SDS011;26089;43.538;5.250;2023-04-05T00:24:30;18.57;;;11.23;;
16288;SDS011;26089;43.538;5.250;2023-04-05T00:26:59;22.13;;;12.83;;
16288;SDS011;26089;43.538;5.250;2023-04-05T00:29:26;19.80;;;14.43;;
16288;SDS011;26089;43.538;5.250;2023-04-05T00:31:53;20.63;;;12.33;;
16288;SDS011;26089;43.538;5.250;2023-04-05T00:34:20;13.00;;;7.60;;
16288;SDS011;26089;43.538;5.250;2023-04-05T00:36:47;8.10;;;6.90;;
16288;SDS011;26089;43.538;5.250;2023-04-05T00:39:15;8.63;;;6.43;;
16288;SDS011;26089;43.538;5.250;2023-04-05T00:41:42;7.47;;;5.57;;
16288;SDS011;26089;43.538;5.250;2023-04-05T00:44:10;10.17;;;5.57;;
16288;SDS011;26089;43.538;5.250;2023-04-05T00:46:37;7.73;;;5.30;;
16288;SDS011;26089;43.538;5.250;2023-04-05T00:49:05;8.90;;;5.47;;
16288;SDS011;26089;43.538;5.250;2023-04-05T00:51:32;7.17;;;5.43;;
16288;SDS011;26089;43.538;5.250;2023-04-05T00:53:59;8.03;;;5.33;;
16288;SDS011;26089;43.538;5.250;2023-04-05T00:56:27;7.60;;;5.40;;
16288;SDS011;26089;43.538;5.250;2023-04-05T00:58:55;5.70;;;5.20;;
16288;SDS011;26089;43.538;5.250;2023-04-05T01:01:24;6.70;;;5.43;;
16288;SDS011;26089;43.538;5.250;2023-04-05T01:03:54;6.57;;;5.23;;
16288;SDS011;26089;43.538;5.250;2023-04-05T01:06:27;6.23;;;4.97;;
16288;SDS011;26089;43.538;5.250;2023-04-05T01:09:13;6.27;;;5.23;;
16288;SDS011;26089;43.538;5.250;2023-04-05T01:11:47;6.50;;;4.77;;
16288;SDS011;26089;43.538;5.250;2023-04-05T01:14:17;6.23;;;4.50;;
16288;SDS011;26089;43.538;5.250;2023-04-05T01:16:45;6.20;;;5.50;;
16288;SDS011;26089;43.538;5.250;2023-04-05T01:19:14;5.97;;;4.60;;
16288;SDS011;26089;43.538;5.250;2023-04-05T01:21:50;7.00;;;5.00;;
16288;SDS011;26089;43.538;5.250;2023-04-05T01:24:39;5.57;;;4.77;;
16288;SDS011;26089;43.538;5.250;2023-04-05T01:27:15;6.43;;;4.97;;
16288;SDS011;26089;43.538;5.250;2023-04-05T01:29:49;6.70;;;5.03;;
16288;SDS011;26089;43.538;5.250;2023-04-05T01:32:21;8.97;;;6.07;;
16288;SDS011;26089;43.538;5.250;2023-04-05T01:34:57;7.23;;;6.40;;
16288;SDS011;26089;43.538;5.250;2023-04-05T01:37:31;5.97;;;5.37;;
16288;SDS011;26089;43.538;5.250;2023-04-05T01:40:00;7.20;;;5.73;;
16288;SDS011;26089;43.538;5.250;2023-04-05T01:42:30;7.73;;;5.67;;
16288;SDS011;26089;43.538;5.250;2023-04-05T01:44:58;7.53;;;6.10;;
16288;SDS011;26089;43.538;5.250;2023-04-05T01:47:25;7.03;;;6.27;;
16288;SDS011;26089;43.538;5.250;2023-04-05T01:49:52;7.17;;;6.17;;
16288;SDS011;26089;43.538;5.250;2023-04-05T01:52:19;6.90;;;6.20;;
16288;SDS011;26089;43.538;5.250;2023-04-05T01:54:46;9.07;;;6.17;;
16288;SDS011;26089;43.538;5.250;2023-04-05T01:57:13;10.40;;;6.50;;
16288;SDS011;26089;43.538;5.250;2023-04-05T01:59:40;8.70;;;6.13;;
16288;SDS011;26089;43.538;5.250;2023-04-05T02:02:08;7.73;;;6.60;;
16288;SDS011;26089;43.538;5.250;2023-04-05T02:04:35;7.37;;;5.83;;
16288;SDS011;26089;43.538;5.250;2023-04-05T02:07:02;7.27;;;6.20;;
16288;SDS011;26089;43.538;5.250;2023-04-05T02:09:29;7.30;;;5.97;;
16288;SDS011;26089;43.538;5.250;2023-04-05T02:11:56;7.10;;;6.23;;
16288;SDS011;26089;43.538;5.250;2023-04-05T02:14:23;6.90;;;6.30;;
16288;SDS011;26089;43.538;5.250;2023-04-05T02:16:50;6.70;;;5.90;;
16288;SDS011;26089;43.538;5.250;2023-04-05T02:19:21;5.30;;;4.60;;
16288;SDS011;26089;43.538;5.250;2023-04-05T02:21:50;3.87;;;3.57;;
16288;SDS011;26089;43.538;5.250;2023-04-05T02:24:18;4.00;;;3.70;;
16288;SDS011;26089;43.538;5.250;2023-04-05T02:26:45;5.43;;;3.20;;
16288;SDS011;26089;43.538;5.250;2023-04-05T02:29:12;3.53;;;3.30;;
16288;SDS011;26089;43.538;5.250;2023-04-05T02:31:39;3.60;;;3.30;;
16288;SDS011;26089;43.538;5.250;2023-04-05T02:34:06;3.53;;;3.33;;
16288;SDS011;26089;43.538;5.250;2023-04-05T02:36:37;4.67;;;3.30;;
16288;SDS011;26089;43.538;5.250;2023-04-05T02:39:05;3.20;;;3.00;;
16288;SDS011;26089;43.538;5.250;2023-04-05T02:41:32;3.27;;;3.07;;
16288;SDS011;26089;43.538;5.250;2023-04-05T02:44:01;9.13;;;5.03;;
16288;SDS011;26089;43.538;5.250;2023-04-05T02:46:28;7.10;;;4.80;;
16288;SDS011;26089;43.538;5.250;2023-04-05T02:48:55;4.60;;;4.20;;
16288;SDS011;26089;43.538;5.250;2023-04-05T02:51:22;4.00;;;3.60;;
16288;SDS011;26089;43.538;5.250;2023-04-05T02:53:50;5.13;;;4.00;;
16288;SDS011;26089;43.538;5.250;2023-04-05T02:56:17;3.83;;;3.50;;
16288;SDS011;26089;43.538;5.250;2023-04-05T02:58:46;4.67;;;3.90;;
16288;SDS011;26089;43.538;5.250;2023-04-05T03:01:14;5.73;;;4.07;;
16288;SDS011;26089;43.538;5.250;2023-04-05T03:03:42;4.00;;;3.60;;
16288;SDS011;26089;43.538;5.250;2023-04-05T03:06:09;6.43;;;4.07;;
16288;SDS011;26089;43.538;5.250;2023-04-05T03:08:36;4.20;;;3.83;;
16288;SDS011;26089;43.538;5.250;2023-04-05T03:11:09;6.33;;;4.30;;
16288;SDS011;26089;43.538;5.250;2023-04-05T03:13:36;5.93;;;3.47;;
16288;SDS011;26089;43.538;5.250;2023-04-05T03:16:04;3.60;;;3.30;;
16288;SDS011;26089;43.538;5.250;2023-04-05T03:18:31;3.40;;;3.10;;
16288;SDS011;26089;43.538;5.250;2023-04-05T03:20:58;3.50;;;3.20;;
16288;SDS011;26089;43.538;5.250;2023-04-05T03:23:26;4.30;;;3.10;;
16288;SDS011;26089;43.538;5.250;2023-04-05T03:25:53;2.80;;;2.60;;
16288;SDS011;26089;43.538;5.250;2023-04-05T03:28:23;3.90;;;3.27;;
16288;SDS011;26089;43.538;5.250;2023-04-05T03:30:50;2.93;;;2.60;;
16288;SDS011;26089;43.538;5.250;2023-04-05T03:33:18;3.03;;;2.83;;
16288;SDS011;26089;43.538;5.250;2023-04-05T03:35:45;3.13;;;2.93;;
16288;SDS011;26089;43.538;5.250;2023-04-05T03:38:12;3.90;;;3.23;;
16288;SDS011;26089;43.538;5.250;2023-04-05T03:40:40;3.57;;;2.80;;
16288;SDS011;26089;43.538;5.250;2023-04-05T03:43:07;3.00;;;2.80;;
16288;SDS011;26089;43.538;5.250;2023-04-05T03:45:35;3.57;;;3.27;;
16288;SDS011;26089;43.538;5.250;2023-04-05T03:48:03;3.50;;;3.30;;
16288;SDS011;26089;43.538;5.250;2023-04-05T03:50:30;3.50;;;3.20;;
16288;SDS011;26089;43.538;5.250;2023-04-05T03:52:57;4.60;;;3.57;;
16288;SDS011;26089;43.538;5.250;2023-04-05T03:55:25;3.90;;;3.50;;
16288;SDS011;26089;43.538;5.250;2023-04-05T03:57:52;3.90;;;3.43;;
16288;SDS011;26089;43.538;5.250;2023-04-05T04:00:20;3.80;;;3.40;;
16288;SDS011;26089;43.538;5.250;2023-04-05T04:02:49;3.93;;;3.57;;
16288;SDS011;26089;43.538;5.250;2023-04-05T04:05:17;3.90;;;3.63;;
16288;SDS011;26089;43.538;5.250;2023-04-05T04:07:45;3.37;;;3.13;;
16288;SDS011;26089;43.538;5.250;2023-04-05T04:10:13;6.13;;;3.87;;
16288;SDS011;26089;43.538;5.250;2023-04-05T04:12:42;3.90;;;3.50;;
16288;SDS011;26089;43.538;5.250;2023-04-05T04:15:09;3.40;;;3.10;;
16288;SDS011;26089;43.538;5.250;2023-04-05T04:17:36;3.77;;;3.17;;
16288;SDS011;26089;43.538;5.250;2023-04-05T04:20:06;3.97;;;2.93;;
16288;SDS011;26089;43.538;5.250;2023-04-05T04:22:35;4.13;;;2.97;;
16288;SDS011;26089;43.538;5.250;2023-04-05T04:25:04;3.30;;;3.00;;
16288;SDS011;26089;43.538;5.250;2023-04-05T04:27:34;4.07;;;3.30;;
16288;SDS011;26089;43.538;5.250;2023-04-05T04:30:05;3.30;;;3.00;;
16288;SDS011;26089;43.538;5.250;2023-04-05T04:32:34;3.27;;;2.93;;
16288;SDS011;26089;43.538;5.250;2023-04-05T04:35:21;3.10;;;2.80;;
16288;SDS011;26089;43.538;5.250;2023-04-05T04:37:50;4.07;;;3.77;;
16288;SDS011;26089;43.538;5.250;2023-04-05T04:40:19;3.90;;;3.50;;
16288;SDS011;26089;43.538;5.250;2023-04-05T04:42:47;4.27;;;3.40;;
16288;SDS011;26089;43.538;5.250;2023-04-05T04:45:15;2.97;;;2.80;;
16288;SDS011;26089;43.538;5.250;2023-04-05T04:47:43;4.07;;;3.00;;
16288;SDS011;26089;43.538;5.250;2023-04-05T04:50:11;4.30;;;3.00;;
16288;SDS011;26089;43.538;5.250;2023-04-05T04:52:41;4.03;;;3.00;;
16288;SDS011;26089;43.538;5.250;2023-04-05T04:55:08;2.90;;;2.70;;
16288;SDS011;26089;43.538;5.250;2023-04-05T04:57:37;4.67;;;3.93;;
16288;SDS011;26089;43.538;5.250;2023-04-05T05:00:05;4.50;;;3.93;;
16288;SDS011;26089;43.538;5.250;2023-04-05T05:02:37;6.37;;;3.90;;
16288;SDS011;26089;43.538;5.250;2023-04-05T05:05:06;3.90;;;3.50;;
16288;SDS011;26089;43.538;5.250;2023-04-05T05:07:34;4.43;;;3.90;;
16288;SDS011;26089;43.538;5.250;2023-04-05T05:10:04;5.37;;;4.00;;
16288;SDS011;26089;43.538;5.250;2023-04-05T05:12:31;5.00;;;4.10;;
16288;SDS011;26089;43.538;5.250;2023-04-05T05:14:58;3.63;;;3.10;;
16288;SDS011;26089;43.538;5.250;2023-04-05T05:17:25;3.60;;;3.37;;
16288;SDS011;26089;43.538;5.250;2023-04-05T05:19:52;3.47;;;3.27;;
16288;SDS011;26089;43.538;5.250;2023-04-05T05:22:19;5.10;;;3.27;;
16288;SDS011;26089;43.538;5.250;2023-04-05T05:24:46;4.83;;;3.60;;
16288;SDS011;26089;43.538;5.250;2023-04-05T05:27:14;3.97;;;3.40;;
16288;SDS011;26089;43.538;5.250;2023-04-05T05:29:41;4.20;;;3.80;;
16288;SDS011;26089;43.538;5.250;2023-04-05T05:32:08;5.37;;;3.90;;
16288;SDS011;26089;43.538;5.250;2023-04-05T05:34:40;5.07;;;3.80;;
16288;SDS011;26089;43.538;5.250;2023-04-05T05:37:09;5.63;;;3.90;;
16288;SDS011;26089;43.538;5.250;2023-04-05T05:39:36;3.80;;;3.50;;
16288;SDS011;26089;43.538;5.250;2023-04-05T05:42:03;6.03;;;4.17;;
16288;SDS011;26089;43.538;5.250;2023-04-05T05:44:31;4.10;;;3.73;;
16288;SDS011;26089;43.538;5.250;2023-04-05T05:47:00;5.43;;;4.03;;
16288;SDS011;26089;43.538;5.250;2023-04-05T05:49:27;4.30;;;3.90;;
16288;SDS011;26089;43.538;5.250;2023-04-05T05:51:55;6.00;;;4.13;;
16288;SDS011;26089;43.538;5.250;2023-04-05T05:54:22;6.57;;;4.80;;
16288;SDS011;26089;43.538;5.250;2023-04-05T05:56:50;7.40;;;5.47;;
16288;SDS011;26089;43.538;5.250;2023-04-05T05:59:17;6.57;;;4.43;;
16288;SDS011;26089;43.538;5.250;2023-04-05T06:01:46;6.67;;;5.07;;
16288;SDS011;26089;43.538;5.250;2023-04-05T06:04:15;9.80;;;6.07;;
16288;SDS011;26089;43.538;5.250;2023-04-05T06:06:43;6.63;;;5.70;;
16288;SDS011;26089;43.538;5.250;2023-04-05T06:09:11;6.47;;;5.70;;
16288;SDS011;26089;43.538;5.250;2023-04-05T06:11:39;8.57;;;7.07;;
16288;SDS011;26089;43.538;5.250;2023-04-05T06:14:06;4.87;;;4.47;;
16288;SDS011;26089;43.538;5.250;2023-04-05T06:16:33;5.43;;;4.93;;
16288;SDS011;26089;43.538;5.250;2023-04-05T06:19:01;8.03;;;5.70;;
16288;SDS011;26089;43.538;5.250;2023-04-05T06:21:28;5.10;;;4.67;;
16288;SDS011;26089;43.538;5.250;2023-04-05T06:23:56;5.23;;;4.47;;
16288;SDS011;26089;43.538;5.250;2023-04-05T06:26:23;5.83;;;5.33;;
16288;SDS011;26089;43.538;5.250;2023-04-05T06:28:54;5.00;;;4.40;;
16288;SDS011;26089;43.538;5.250;2023-04-05T06:31:25;5.03;;;4.43;;
16288;SDS011;26089;43.538;5.250;2023-04-05T06:33:52;7.90;;;4.33;;
16288;SDS011;26089;43.538;5.250;2023-04-05T06:36:21;5.53;;;4.10;;
16288;SDS011;26089;43.538;5.250;2023-04-05T06:38:48;4.40;;;3.87;;
16288;SDS011;26089;43.538;5.250;2023-04-05T06:41:15;4.73;;;3.73;;
16288;SDS011;26089;43.538;5.250;2023-04-05T06:43:42;5.60;;;4.67;;
16288;SDS011;26089;43.538;5.250;2023-04-05T06:46:09;4.23;;;3.50;;
16288;SDS011;26089;43.538;5.250;2023-04-05T06:48:37;4.10;;;3.80;;
16288;SDS011;26089;43.538;5.250;2023-04-05T06:51:05;4.10;;;3.70;;
16288;SDS011;26089;43.538;5.250;2023-04-05T06:53:33;4.03;;;3.73;;
16288;SDS011;26089;43.538;5.250;2023-04-05T06:56:00;4.37;;;3.97;;
16288;SDS011;26089;43.538;5.250;2023-04-05T06:58:28;5.13;;;4.27;;
16288;SDS011;26089;43.538;5.250;2023-04-05T07:00:55;5.50;;;3.93;;
16288;SDS011;26089;43.538;5.250;2023-04-05T07:03:22;3.63;;;3.33;;
16288;SDS011;26089;43.538;5.250;2023-04-05T07:05:49;3.53;;;3.20;;
16288;SDS011;26089;43.538;5.250;2023-04-05T07:08:17;4.00;;;3.40;;
16288;SDS011;26089;43.538;5.250;2023-04-05T07:10:46;4.30;;;3.40;;
16288;SDS011;26089;43.538;5.250;2023-04-05T07:13:13;3.50;;;3.20;;
16288;SDS011;26089;43.538;5.250;2023-04-05T07:15:41;4.50;;;3.70;;
16288;SDS011;26089;43.538;5.250;2023-04-05T07:18:08;2.80;;;2.70;;
16288;SDS011;26089;43.538;5.250;2023-04-05T07:20:35;3.67;;;3.30;;
16288;SDS011;26089;43.538;5.250;2023-04-05T07:23:02;5.87;;;3.70;;
16288;SDS011;26089;43.538;5.250;2023-04-05T07:25:29;4.80;;;3.73;;
16288;SDS011;26089;43.538;5.250;2023-04-05T07:27:58;6.67;;;3.47;;
16288;SDS011;26089;43.538;5.250;2023-04-05T07:30:25;4.40;;;3.77;;
16288;SDS011;26089;43.538;5.250;2023-04-05T07:32:53;3.23;;;2.93;;
16288;SDS011;26089;43.538;5.250;2023-04-05T07:35:20;4.83;;;3.70;;
16288;SDS011;26089;43.538;5.250;2023-04-05T07:37:47;3.27;;;3.03;;
16288;SDS011;26089;43.538;5.250;2023-04-05T07:40:14;4.00;;;3.37;;
16288;SDS011;26089;43.538;5.250;2023-04-05T07:42:41;3.70;;;3.40;;
16288;SDS011;26089;43.538;5.250;2023-04-05T07:45:09;4.60;;;3.20;;
16288;SDS011;26089;43.538;5.250;2023-04-05T07:47:37;3.60;;;3.30;;
16288;SDS011;26089;43.538;5.250;2023-04-05T07:50:04;4.13;;;3.63;;
16288;SDS011;26089;43.538;5.250;2023-04-05T07:52:33;3.87;;;3.47;;
16288;SDS011;26089;43.538;5.250;2023-04-05T07:55:00;3.80;;;3.20;;
16288;SDS011;26089;43.538;5.250;2023-04-05T07:57:28;4.30;;;3.17;;
16288;SDS011;26089;43.538;5.250;2023-04-05T07:59:54;3.47;;;3.17;;
16288;SDS011;26089;43.538;5.250;2023-04-05T08:02:23;5.53;;;3.33;;
16288;SDS011;26089;43.538;5.250;2023-04-05T08:04:50;4.10;;;3.20;;
16288;SDS011;26089;43.538;5.250;2023-04-05T08:07:17;7.20;;;3.57;;
16288;SDS011;26089;43.538;5.250;2023-04-05T08:09:44;4.27;;;3.57;;
16288;SDS011;26089;43.538;5.250;2023-04-05T08:12:11;3.93;;;2.97;;
16288;SDS011;26089;43.538;5.250;2023-04-05T08:14:38;3.77;;;3.47;;
16288;SDS011;26089;43.538;5.250;2023-04-05T08:17:05;3.57;;;3.27;;
16288;SDS011;26089;43.538;5.250;2023-04-05T08:19:33;3.97;;;3.53;;
16288;SDS011;26089;43.538;5.250;2023-04-05T08:22:00;4.40;;;3.33;;
16288;SDS011;26089;43.538;5.250;2023-04-05T08:24:27;3.07;;;2.80;;
16288;SDS011;26089;43.538;5.250;2023-04-05T08:26:54;4.87;;;3.43;;
16288;SDS011;26089;43.538;5.250;2023-04-05T08:29:21;3.77;;;3.13;;
16288;SDS011;26089;43.538;5.250;2023-04-05T08:31:48;3.77;;;3.13;;
16288;SDS011;26089;43.538;5.250;2023-04-05T08:34:15;3.37;;;2.93;;
16288;SDS011;26089;43.538;5.250;2023-04-05T08:36:43;4.43;;;3.30;;
16288;SDS011;26089;43.538;5.250;2023-04-05T08:39:10;3.30;;;2.90;;
16288;SDS011;26089;43.538;5.250;2023-04-05T08:41:39;4.57;;;3.10;;
16288;SDS011;26089;43.538;5.250;2023-04-05T08:44:10;4.03;;;3.50;;
16288;SDS011;26089;43.538;5.250;2023-04-05T08:46:37;2.63;;;2.43;;
16288;SDS011;26089;43.538;5.250;2023-04-05T08:49:05;4.37;;;3.07;;
16288;SDS011;26089;43.538;5.250;2023-04-05T08:51:33;3.73;;;3.37;;
16288;SDS011;26089;43.538;5.250;2023-04-05T08:54:04;6.03;;;3.30;;
16288;SDS011;26089;43.538;5.250;2023-04-05T08:56:32;3.20;;;2.83;;
16288;SDS011;26089;43.538;5.250;2023-04-05T08:59:01;3.93;;;3.23;;
16288;SDS011;26089;43.538;5.250;2023-04-05T09:01:29;5.07;;;3.30;;
16288;SDS011;26089;43.538;5.250;2023-04-05T09:03:57;3.03;;;2.80;;
16288;SDS011;26089;43.538;5.250;2023-04-05T09:06:27;5.23;;;3.70;;
16288;SDS011;26089;43.538;5.250;2023-04-05T09:08:54;3.40;;;2.90;;
16288;SDS011;26089;43.538;5.250;2023-04-05T09:11:24;3.27;;;2.90;;
16288;SDS011;26089;43.538;5.250;2023-04-05T09:13:51;2.90;;;2.70;;
16288;SDS011;26089;43.538;5.250;2023-04-05T09:16:18;3.00;;;2.70;;
16288;SDS011;26089;43.538;5.250;2023-04-05T09:18:45;3.03;;;2.37;;
16288;SDS011;26089;43.538;5.250;2023-04-05T09:21:13;2.70;;;2.50;;
16288;SDS011;26089;43.538;5.250;2023-04-05T09:23:50;6.93;;;2.73;;
16288;SDS011;26089;43.538;5.250;2023-04-05T09:26:19;2.80;;;2.60;;
16288;SDS011;26089;43.538;5.250;2023-04-05T09:28:49;3.10;;;2.80;;
16288;SDS011;26089;43.538;5.250;2023-04-05T09:31:28;2.60;;;2.50;;
16288;SDS011;26089;43.538;5.250;2023-04-05T09:33:56;3.37;;;2.37;;
16288;SDS011;26089;43.538;5.250;2023-04-05T09:36:25;2.73;;;2.20;;
16288;SDS011;26089;43.538;5.250;2023-04-05T09:38:53;2.83;;;2.17;;
16288;SDS011;26089;43.538;5.250;2023-04-05T09:41:30;2.83;;;2.63;;
16288;SDS011;26089;43.538;5.250;2023-04-05T09:43:59;3.03;;;2.60;;
16288;SDS011;26089;43.538;5.250;2023-04-05T09:46:29;2.83;;;2.70;;
16288;SDS011;26089;43.538;5.250;2023-04-05T09:48:58;3.27;;;2.97;;
16288;SDS011;26089;43.538;5.250;2023-04-05T09:51:30;2.80;;;2.60;;
16288;SDS011;26089;43.538;5.250;2023-04-05T09:53:59;4.13;;;3.13;;
16288;SDS011;26089;43.538;5.250;2023-04-05T09:56:27;2.70;;;2.50;;
16288;SDS011;26089;43.538;5.250;2023-04-05T09:59:00;4.23;;;2.70;;
16288;SDS011;26089;43.538;5.250;2023-04-05T10:01:31;4.17;;;3.50;;
16288;SDS011;26089;43.538;5.250;2023-04-05T10:03:58;4.47;;;3.90;;
16288;SDS011;26089;43.538;5.250;2023-04-05T10:06:35;3.17;;;2.97;;
16288;SDS011;26089;43.538;5.250;2023-04-05T10:09:03;4.20;;;3.80;;
16288;SDS011;26089;43.538;5.250;2023-04-05T10:11:31;3.53;;;2.93;;
16288;SDS011;26089;43.538;5.250;2023-04-05T10:14:01;4.07;;;3.30;;
16288;SDS011;26089;43.538;5.250;2023-04-05T10:16:29;5.70;;;3.83;;
16288;SDS011;26089;43.538;5.250;2023-04-05T10:19:01;4.97;;;3.40;;
16288;SDS011;26089;43.538;5.250;2023-04-05T10:21:34;4.47;;;3.70;;
16288;SDS011;26089;43.538;5.250;2023-04-05T10:24:07;4.13;;;2.97;;
16288;SDS011;26089;43.538;5.250;2023-04-05T10:26:44;4.10;;;3.17;;
16288;SDS011;26089;43.538;5.250;2023-04-05T10:29:24;7.10;;;2.90;;
16288;SDS011;26089;43.538;5.250;2023-04-05T10:32:02;3.87;;;2.90;;
16288;SDS011;26089;43.538;5.250;2023-04-05T10:34:35;4.07;;;3.23;;
16288;SDS011;26089;43.538;5.250;2023-04-05T10:37:08;3.07;;;2.73;;
16288;SDS011;26089;43.538;5.250;2023-04-05T10:39:47;3.83;;;3.47;;
16288;SDS011;26089;43.538;5.250;2023-04-05T10:42:19;4.13;;;3.03;;
16288;SDS011;26089;43.538;5.250;2023-04-05T10:44:51;4.07;;;3.23;;
16288;SDS011;26089;43.538;5.250;2023-04-05T10:47:24;4.47;;;3.20;;
16288;SDS011;26089;43.538;5.250;2023-04-05T10:49:55;4.43;;;2.97;;
16288;SDS011;26089;43.538;5.250;2023-04-05T10:52:25;3.67;;;2.77;;
16288;SDS011;26089;43.538;5.250;2023-04-05T10:54:53;4.80;;;3.30;;
16288;SDS011;26089;43.538;5.250;2023-04-05T10:57:23;3.43;;;2.93;;
16288;SDS011;26089;43.538;5.250;2023-04-05T10:59:53;3.00;;;2.70;;
16288;SDS011;26089;43.538;5.250;2023-04-05T11:02:20;3.00;;;2.70;;
16288;SDS011;26089;43.538;5.250;2023-04-05T11:04:52;3.73;;;2.50;;
16288;SDS011;26089;43.538;5.250;2023-04-05T11:07:20;3.13;;;2.93;;
16288;SDS011;26089;43.538;5.250;2023-04-05T11:09:49;4.43;;;2.83;;
16288;SDS011;26089;43.538;5.250;2023-04-05T11:12:18;4.43;;;2.90;;
16288;SDS011;26089;43.538;5.250;2023-04-05T11:14:45;4.50;;;3.10;;
16288;SDS011;26089;43.538;5.250;2023-04-05T11:17:26;3.37;;;3.07;;
16288;SDS011;26089;43.538;5.250;2023-04-05T11:19:58;3.10;;;2.90;;
16288;SDS011;26089;43.538;5.250;2023-04-05T11:22:29;3.27;;;2.93;;
16288;SDS011;26089;43.538;5.250;2023-04-05T11:24:56;3.30;;;3.00;;
16288;SDS011;26089;43.538;5.250;2023-04-05T11:27:27;4.17;;;2.97;;
16288;SDS011;26089;43.538;5.250;2023-04-05T11:29:55;5.40;;;2.90;;
16288;SDS011;26089;43.538;5.250;2023-04-05T11:32:23;4.87;;;3.40;;
16288;SDS011;26089;43.538;5.250;2023-04-05T11:35:04;3.57;;;3.20;;
16288;SDS011;26089;43.538;5.250;2023-04-05T11:40:33;3.93;;;3.20;;
16288;SDS011;26089;43.538;5.250;2023-04-05T11:43:02;3.83;;;2.77;;
16288;SDS011;26089;43.538;5.250;2023-04-05T11:45:31;3.27;;;2.87;;
16288;SDS011;26089;43.538;5.250;2023-04-05T11:48:01;3.93;;;2.70;;
16288;SDS011;26089;43.538;5.250;2023-04-05T11:50:31;3.30;;;2.87;;
16288;SDS011;26089;43.538;5.250;2023-04-05T11:53:08;3.07;;;2.87;;
16288;SDS011;26089;43.538;5.250;2023-04-05T11:55:36;4.30;;;3.13;;
16288;SDS011;26089;43.538;5.250;2023-04-05T11:58:10;4.80;;;3.60;;
16288;SDS011;26089;43.538;5.250;2023-04-05T12:00:37;3.80;;;3.07;;
16288;SDS011;26089;43.538;5.250;2023-04-05T12:03:06;7.33;;;3.33;;
16288;SDS011;26089;43.538;5.250;2023-04-05T12:05:49;4.13;;;3.20;;
16288;SDS011;26089;43.538;5.250;2023-04-05T12:08:16;4.43;;;3.07;;
16288;SDS011;26089;43.538;5.250;2023-04-05T12:10:44;4.30;;;3.30;;
16288;SDS011;26089;43.538;5.250;2023-04-05T12:13:24;4.90;;;3.20;;
16288;SDS011;26089;43.538;5.250;2023-04-05T12:15:52;4.30;;;3.90;;
16288;SDS011;26089;43.538;5.250;2023-04-05T12:18:21;4.20;;;3.80;;
16288;SDS011;26089;43.538;5.250;2023-04-05T12:20:50;4.43;;;3.50;;
16288;SDS011;26089;43.538;5.250;2023-04-05T12:23:18;3.57;;;3.27;;
16288;SDS011;26089;43.538;5.250;2023-04-05T12:25:46;4.03;;;3.30;;
16288;SDS011;26089;43.538;5.250;2023-04-05T12:28:14;4.80;;;3.50;;
16288;SDS011;26089;43.538;5.250;2023-04-05T12:30:47;6.00;;;3.60;;
16288;SDS011;26089;43.538;5.250;2023-04-05T12:33:15;3.90;;;3.53;;
16288;SDS011;26089;43.538;5.250;2023-04-05T12:35:53;4.90;;;3.63;;
16288;SDS011;26089;43.538;5.250;2023-04-05T12:38:22;4.23;;;3.83;;
16288;SDS011;26089;43.538;5.250;2023-04-05T12:40:52;5.10;;;3.23;;
16288;SDS011;26089;43.538;5.250;2023-04-05T12:43:19;3.83;;;3.43;;
16288;SDS011;26089;43.538;5.250;2023-04-05T12:45:46;3.83;;;3.50;;
16288;SDS011;26089;43.538;5.250;2023-04-05T12:48:18;5.10;;;4.00;;
16288;SDS011;26089;43.538;5.250;2023-04-05T12:50:49;4.40;;;3.33;;
16288;SDS011;26089;43.538;5.250;2023-04-05T12:53:19;3.87;;;3.47;;
16288;SDS011;26089;43.538;5.250;2023-04-05T12:55:48;4.67;;;3.20;;
16288;SDS011;26089;43.538;5.250;2023-04-05T12:58:16;3.53;;;3.23;;
16288;SDS011;26089;43.538;5.250;2023-04-05T13:00:44;4.20;;;3.50;;
16288;SDS011;26089;43.538;5.250;2023-04-05T13:03:14;3.47;;;3.10;;
16288;SDS011;26089;43.538;5.250;2023-04-05T13:05:44;4.93;;;3.10;;
16288;SDS011;26089;43.538;5.250;2023-04-05T13:08:12;3.50;;;3.20;;
16288;SDS011;26089;43.538;5.250;2023-04-05T13:10:39;5.53;;;2.87;;
16288;SDS011;26089;43.538;5.250;2023-04-05T13:13:06;3.80;;;3.40;;
16288;SDS011;26089;43.538;5.250;2023-04-05T13:15:33;4.37;;;3.03;;
16288;SDS011;26089;43.538;5.250;2023-04-05T13:18:00;3.40;;;3.10;;
16288;SDS011;26089;43.538;5.250;2023-04-05T13:20:27;3.63;;;2.90;;
16288;SDS011;26089;43.538;5.250;2023-04-05T13:22:54;3.17;;;2.80;;
16288;SDS011;26089;43.538;5.250;2023-04-05T13:25:23;5.27;;;3.10;;
16288;SDS011;26089;43.538;5.250;2023-04-05T13:27:50;4.40;;;2.50;;
16288;SDS011;26089;43.538;5.250;2023-04-05T13:30:17;3.17;;;2.97;;
16288;SDS011;26089;43.538;5.250;2023-04-05T13:32:44;3.10;;;2.80;;
16288;SDS011;26089;43.538;5.250;2023-04-05T13:35:11;3.20;;;2.90;;
16288;SDS011;26089;43.538;5.250;2023-04-05T13:37:38;3.43;;;3.10;;
16288;SDS011;26089;43.538;5.250;2023-04-05T13:40:06;4.03;;;2.63;;
16288;SDS011;26089;43.538;5.250;2023-04-05T13:42:35;2.77;;;2.57;;
16288;SDS011;26089;43.538;5.250;2023-04-05T13:45:03;4.80;;;2.97;;
16288;SDS011;26089;43.538;5.250;2023-04-05T13:47:30;3.77;;;2.83;;
16288;SDS011;26089;43.538;5.250;2023-04-05T13:49:57;4.27;;;3.07;;
16288;SDS011;26089;43.538;5.250;2023-04-05T13:52:24;5.10;;;3.07;;
16288;SDS011;26089;43.538;5.250;2023-04-05T13:54:51;3.40;;;3.10;;
16288;SDS011;26089;43.538;5.250;2023-04-05T13:57:18;4.47;;;3.13;;
16288;SDS011;26089;43.538;5.250;2023-04-05T13:59:46;2.67;;;2.30;;
16288;SDS011;26089;43.538;5.250;2023-04-05T14:02:13;3.23;;;2.60;;
16288;SDS011;26089;43.538;5.250;2023-04-05T14:04:44;3.00;;;2.67;;
16288;SDS011;26089;43.538;5.250;2023-04-05T14:07:11;2.43;;;2.23;;
16288;SDS011;26089;43.538;5.250;2023-04-05T14:09:38;5.43;;;2.73;;
16288;SDS011;26089;43.538;5.250;2023-04-05T14:12:05;3.40;;;2.70;;
16288;SDS011;26089;43.538;5.250;2023-04-05T14:14:32;3.50;;;2.43;;
16288;SDS011;26089;43.538;5.250;2023-04-05T14:17:00;7.33;;;2.60;;
16288;SDS011;26089;43.538;5.250;2023-04-05T14:19:27;3.97;;;2.77;;
16288;SDS011;26089;43.538;5.250;2023-04-05T14:21:54;4.63;;;2.73;;
16288;SDS011;26089;43.538;5.250;2023-04-05T14:24:22;9.07;;;3.10;;
16288;SDS011;26089;43.538;5.250;2023-04-05T14:26:49;5.07;;;2.70;;
16288;SDS011;26089;43.538;5.250;2023-04-05T14:29:16;2.97;;;2.20;;
16288;SDS011;26089;43.538;5.250;2023-04-05T14:31:43;3.30;;;2.73;;
16288;SDS011;26089;43.538;5.250;2023-04-05T14:34:12;3.27;;;2.83;;
16288;SDS011;26089;43.538;5.250;2023-04-05T14:36:39;3.60;;;2.70;;
16288;SDS011;26089;43.538;5.250;2023-04-05T14:39:06;4.60;;;2.70;;
16288;SDS011;26089;43.538;5.250;2023-04-05T14:41:34;3.60;;;2.87;;
16288;SDS011;26089;43.538;5.250;2023-04-05T14:44:01;3.20;;;2.70;;
16288;SDS011;26089;43.538;5.250;2023-04-05T14:46:28;3.77;;;2.60;;
16288;SDS011;26089;43.538;5.250;2023-04-05T14:48:55;4.80;;;2.50;;
16288;SDS011;26089;43.538;5.250;2023-04-05T14:51:24;3.27;;;2.33;;
16288;SDS011;26089;43.538;5.250;2023-04-05T14:53:52;2.23;;;2.03;;
16288;SDS011;26089;43.538;5.250;2023-04-05T14:56:19;2.20;;;2.00;;
16288;SDS011;26089;43.538;5.250;2023-04-05T14:58:46;2.60;;;1.90;;
16288;SDS011;26089;43.538;5.250;2023-04-05T15:01:13;3.53;;;2.10;;